Time;durP1;ratioP1;P1;durP2;ratioP2;P2;SDS_P1;SDS_P2;PMS_P1;PMS_P2;Temp;Humidity;BMP_temperature;BMP_pressure;BME280_temperature;BME280_humidity;BME280_pressure;Samples;Min_cycle;Max_cycle;Signal;HPM_P1;HPM_P2
2021/01/06 00:02:24;;;;;;;75.90;29.55;;;;;;;0.73;71.05;94583.19;5029058;28;20029;-66
2021/01/06 00:04:49;;;;;;;81.05;28.80;;;;;;;0.90;70.26;94581.16;5029582;28;20029;-71
2021/01/06 00:07:14;;;;;;;75.75;29.13;;;;;;;1.03;69.24;94582.53;5029459;28;20395;-67
2021/01/06 00:09:40;;;;;;;76.95;29.85;;;;;;;1.29;69.46;94593.84;5029148;28;20033;-66
2021/01/06 00:12:07;;;;;;;82.45;29.65;;;;;;;1.02;69.40;94599.25;5031175;28;20021;-67
2021/01/06 00:14:32;;;;;;;79.63;29.85;;;;;;;0.83;70.69;94598.94;5029192;28;20033;-68
2021/01/06 00:16:58;;;;;;;75.05;30.35;;;;;;;1.08;70.32;94598.25;5029233;28;20049;-66
2021/01/06 00:19:23;;;;;;;73.43;28.35;;;;;;;1.43;69.61;94589.66;5029119;28;20029;-67
2021/01/06 00:21:49;;;;;;;80.43;30.40;;;;;;;1.33;68.86;94586.25;5029181;28;20136;-67
2021/01/06 00:24:15;;;;;;;75.75;28.33;;;;;;;0.88;70.13;94596.34;5011528;28;20115;-67
2021/01/06 00:26:40;;;;;;;73.40;28.85;;;;;;;1.23;69.10;94589.66;5031100;28;20118;-67
2021/01/06 00:29:12;;;;;;;77.68;30.38;;;;;;;1.37;68.71;94601.19;5028404;28;20037;-67
2021/01/06 00:31:42;;;;;;;;;;;;;;;0.58;71.13;94609.28;5011558;28;20498;-68
2021/01/06 00:34:08;;;;;;;82.00;28.75;;;;;;;0.48;71.43;94612.63;5029078;28;19936;-66
2021/01/06 00:36:33;;;;;;;87.20;29.67;;;;;;;0.52;71.69;94596.19;5028929;28;20487;-66
2021/01/06 00:38:59;;;;;;;90.35;30.15;;;;;;;0.16;72.86;94602.25;5030912;28;20025;-67
2021/01/06 00:41:29;;;;;;;89.75;31.95;;;;;;;0.08;73.96;94589.63;5030586;28;20522;-66
2021/01/06 00:43:55;;;;;;;100.68;32.50;;;;;;;0.61;72.50;94596.47;5015004;28;20053;-67
2021/01/06 00:46:21;;;;;;;89.53;31.15;;;;;;;0.32;72.45;94595.28;5032676;28;20183;-68
2021/01/06 00:48:47;;;;;;;97.88;32.53;;;;;;;0.52;71.88;94609.28;5032236;28;20137;-68
2021/01/06 00:51:12;;;;;;;90.22;31.67;;;;;;;0.18;73.41;94597.53;5032318;28;20030;-67
2021/01/06 00:53:38;;;;;;;88.95;30.35;;;;;;;-0.18;74.21;94583.44;5034444;28;20030;-68
2021/01/06 00:56:03;;;;;;;79.72;29.95;;;;;;;0.23;73.45;94592.34;5032425;28;20045;-67
2021/01/06 00:58:28;;;;;;;86.90;32.17;;;;;;;0.12;73.85;94598.56;5031571;28;20124;-68
2021/01/06 01:00:54;;;;;;;100.35;31.17;;;;;;;-0.08;74.94;94597.38;5032295;28;20406;-66
2021/01/06 01:03:19;;;;;;;90.30;31.05;;;;;;;-0.07;75.13;94585.88;5032231;28;20024;-69
2021/01/06 01:05:46;;;;;;;94.78;30.65;;;;;;;-0.06;74.68;94584.81;5034303;28;20079;-67
2021/01/06 01:08:12;;;;;;;107.50;35.70;;;;;;;-0.20;75.74;94591.53;5032154;28;20498;-67
2021/01/06 01:10:40;;;;;;;107.80;33.22;;;;;;;-0.25;75.92;94582.88;5031863;28;20117;-68
2021/01/06 01:13:10;;;;;;;104.35;33.95;;;;;;;-0.42;77.56;94591.59;5031983;28;20029;-67
2021/01/06 01:15:37;;;;;;;101.88;34.47;;;;;;;-0.51;78.26;94593.09;5014437;28;20079;-67
2021/01/06 01:18:05;;;;;;;100.35;32.00;;;;;;;-0.72;79.08;94592.09;5016178;28;20064;-67
2021/01/06 01:20:31;;;;;;;104.43;33.33;;;;;;;-0.94;79.90;94570.47;5031903;28;20037;-67
2021/01/06 01:22:56;;;;;;;106.75;34.95;;;;;;;-0.48;79.18;94568.28;5014297;28;20040;-69
2021/01/06 01:25:27;;;;;;;126.53;37.42;;;;;;;-0.14;78.38;94574.06;5031953;28;20136;-67
2021/01/06 01:27:53;;;;;;;105.40;34.58;;;;;;;-0.04;77.92;94580.16;5031250;28;20060;-68
2021/01/06 01:30:26;;;;;;;103.65;32.42;;;;;;;-0.36;78.09;94576.75;5031714;28;20063;-68
2021/01/06 01:32:53;;;;;;;103.85;33.90;;;;;;;-0.34;78.26;94582.53;5033692;28;20029;-69
2021/01/06 01:35:30;;;;;;;103.70;33.78;;;;;;;-0.35;77.91;94567.88;5032043;28;20033;-68
2021/01/06 01:37:57;;;;;;;100.05;32.40;;;;;;;-0.55;78.51;94568.50;5031603;28;20073;-67
2021/01/06 01:40:27;;;;;;;103.35;35.25;;;;;;;-0.75;79.66;94576.16;5031483;28;20063;-68
2021/01/06 01:42:57;;;;;;;116.38;36.10;;;;;;;-0.44;79.32;94582.44;5013671;28;20068;-69
2021/01/06 01:45:31;;;;;;;121.40;37.22;;;;;;;-0.18;78.63;94580.81;5031670;28;20021;-67
2021/01/06 01:48:02;;;;;;;108.82;34.78;;;;;;;0.17;77.74;94582.91;5033543;28;20025;-68
2021/01/06 01:50:30;;;;;;;90.57;30.30;;;;;;;0.19;76.91;94576.34;5031282;28;20511;-68
2021/01/06 01:53:04;;;;;;;113.50;34.88;;;;;;;-0.34;78.24;94565.03;5030815;28;20040;-68
2021/01/06 01:55:31;;;;;;;109.93;35.97;;;;;;;-0.25;78.35;94575.81;5031321;28;20049;-68
2021/01/06 01:58:04;;;;;;;113.03;37.22;;;;;;;0.09;77.98;94578.91;5030717;28;20040;-68
2021/01/06 02:00:34;;;;;;;105.60;34.88;;;;;;;-0.10;77.98;94583.75;5030995;28;20030;-66
2021/01/06 02:03:12;;;;;;;105.53;35.70;;;;;;;-0.26;78.13;94571.59;5033051;28;20032;-66
2021/01/06 02:06:03;;;;;;;112.30;36.70;;;;;;;-0.34;79.29;94572.06;5031710;28;20095;-67
2021/01/06 02:08:49;;;;;;;102.60;33.97;;;;;;;-0.30;79.04;94571.31;5030913;28;20121;-67
2021/01/06 02:11:30;;;;;;;110.25;36.90;;;;;;;-0.28;78.50;94574.47;5030841;28;20041;-68
2021/01/06 02:14:04;;;;;;;107.70;34.55;;;;;;;-0.52;79.82;94568.00;5030965;28;20484;-66
2021/01/06 02:16:59;;;;;;;110.18;36.65;;;;;;;-0.54;79.69;94560.41;5030865;28;20045;-67
2021/01/06 02:19:30;;;;;;;110.85;36.00;;;;;;;-0.80;81.59;94556.78;5030554;28;20060;-67
2021/01/06 02:21:56;;;;;;;102.13;33.13;;;;;;;-0.62;80.14;94575.72;5030751;28;20391;-68
2021/01/06 02:24:22;;;;;;;105.45;35.33;;;;;;;-0.86;81.71;94544.72;5030515;28;20030;-66
2021/01/06 02:26:48;;;;;;;98.88;30.92;;;;;;;-1.00;81.40;94553.19;5032749;28;20101;-67
2021/01/06 02:29:14;;;;;;;103.55;35.65;;;;;;;-0.96;82.60;94565.50;5030031;28;20394;-66
2021/01/06 02:31:40;;;;;;;104.90;35.50;;;;;;;-0.90;82.47;94568.94;5030379;28;20036;-68
2021/01/06 02:34:06;;;;;;;108.57;35.53;;;;;;;-0.86;81.28;94542.09;5030529;28;20041;-66
2021/01/06 02:36:31;;;;;;;107.25;33.05;;;;;;;-1.08;82.64;94544.75;5030548;28;20041;-69
2021/01/06 02:38:57;;;;;;;112.65;37.78;;;;;;;-0.94;82.93;94545.16;5032349;28;20029;-67
2021/01/06 02:41:23;;;;;;;109.38;35.55;;;;;;;-0.94;82.95;94557.41;5030318;28;20499;-67
2021/01/06 02:43:49;;;;;;;111.03;36.28;;;;;;;-0.54;81.89;94559.63;5030459;28;20057;-67
2021/01/06 02:46:15;;;;;;;102.07;35.13;;;;;;;-0.80;81.69;94558.59;5030313;28;20513;-67
2021/01/06 02:48:41;;;;;;;112.07;36.53;;;;;;;-0.66;81.40;94549.34;5030114;28;20037;-66
2021/01/06 02:51:42;;;;;;;107.70;36.10;;;;;;;-0.86;83.06;94562.22;5032278;28;20176;-67
2021/01/06 02:54:11;;;;;;;107.65;36.13;;;;;;;-0.72;82.31;94565.97;5026296;28;20045;-67
2021/01/06 02:56:41;;;;;;;105.53;36.10;;;;;;;-0.83;82.24;94564.31;5030455;28;20037;-67
2021/01/06 02:59:08;;;;;;;108.72;35.58;;;;;;;-1.01;82.64;94559.44;5029287;28;20506;-68
2021/01/06 03:01:38;;;;;;;104.40;32.75;;;;;;;-1.19;82.56;94527.41;5030111;28;20124;-66
2021/01/06 03:04:07;;;;;;;109.65;34.78;;;;;;;-1.07;83.62;94556.78;5029493;28;20061;-67
2021/01/06 03:06:41;;;;;;;110.10;35.78;;;;;;;-0.87;83.28;94555.38;5030027;28;20111;-67
2021/01/06 03:09:23;;;;;;;111.45;37.30;;;;;;;-0.77;83.15;94557.31;5031858;28;20057;-67
2021/01/06 03:11:49;;;;;;;111.57;36.28;;;;;;;-0.87;82.87;94537.09;5030307;28;20041;-66
2021/01/06 03:14:14;;;;;;;100.68;34.65;;;;;;;-0.62;81.40;94550.41;5029808;28;20589;-68
2021/01/06 03:16:39;;;;;;;106.32;34.92;;;;;;;-0.64;81.74;94549.88;5029727;28;20040;-67
2021/01/06 03:19:07;;;;;;;105.95;35.55;;;;;;;-0.74;81.56;94535.94;5029723;28;20099;-67
2021/01/06 03:21:33;;;;;;;112.22;37.85;;;;;;;-0.66;82.03;94538.91;5029513;28;20116;-67
2021/01/06 03:24:00;;;;;;;115.72;35.95;;;;;;;-0.75;81.46;94550.03;5031741;28;20026;-68
2021/01/06 03:26:26;;;;;;;110.25;36.50;;;;;;;-0.43;80.75;94542.22;5029857;28;20040;-67
2021/01/06 03:28:53;;;;;;;113.25;36.92;;;;;;;-0.04;80.10;94543.53;5029076;28;20046;-67
2021/01/06 03:31:23;;;;;;;107.75;36.65;;;;;;;-0.13;78.75;94533.81;5029512;28;20049;-67
2021/01/06 03:34:02;;;;;;;106.68;36.42;;;;;;;-0.18;78.67;94542.41;5029868;28;20042;-68
2021/01/06 03:36:35;;;;;;;113.85;36.67;;;;;;;-0.02;79.05;94536.22;5029577;28;20029;-67
2021/01/06 03:39:07;;;;;;;102.43;36.63;;;;;;;0.23;78.76;94543.44;5031450;28;20075;-67
2021/01/06 03:41:34;;;;;;;104.28;36.40;;;;;;;-0.22;79.38;94537.91;5011736;28;20045;-67
2021/01/06 03:44:06;;;;;;;101.95;36.97;;;;;;;-0.29;80.54;94543.38;5011856;28;20121;-68
2021/01/06 03:46:48;;;;;;;106.28;35.47;;;;;;;-0.17;79.94;94546.56;5028722;28;20045;-68
2021/01/06 03:49:27;;;;;;;105.85;35.92;;;;;;;-0.05;79.25;94520.28;5028413;28;20033;-68
2021/01/06 03:52:08;;;;;;;96.75;35.97;;;;;;;-0.47;80.09;94526.22;5028997;28;20525;-68
2021/01/06 03:54:44;;;;;;;96.50;33.03;;;;;;;-0.43;79.66;94544.81;5011951;28;20088;-68
2021/01/06 03:57:11;;;;;;;100.30;34.40;;;;;;;-0.40;79.24;94529.44;5013578;28;20761;-68
2021/01/06 03:59:41;;;;;;;93.00;33.40;;;;;;;-0.28;79.38;94532.66;5029307;28;20065;-68
2021/01/06 04:02:09;;;;;;;105.40;36.95;;;;;;;-0.02;78.98;94533.59;5029345;28;20487;-66
2021/01/06 04:04:45;;;;;;;88.30;30.35;;;;;;;-1.03;80.88;94511.91;5029466;28;20034;-66
2021/01/06 04:07:27;;;;;;;92.22;33.28;;;;;;;-0.60;80.75;94526.66;5011625;28;20095;-67
2021/01/06 04:10:06;;;;;;;95.45;33.25;;;;;;;-0.39;79.83;94532.84;5011270;28;20522;-66
2021/01/06 04:12:32;;;;;;;95.40;33.22;;;;;;;-0.79;80.28;94527.00;5029118;28;20064;-68
2021/01/06 04:14:57;;;;;;;102.28;35.15;;;;;;;-0.62;80.40;94502.59;5014815;28;20080;-68
2021/01/06 04:17:27;;;;;;;94.22;33.10;;;;;;;-0.71;80.47;94528.41;5015296;28;20077;-66
2021/01/06 04:19:59;;;;;;;99.57;35.95;;;;;;;-0.42;79.89;94510.59;5032951;28;20042;-67
2021/01/06 04:22:48;;;;;;;93.68;33.75;;;;;;;-0.23;79.07;94524.06;5032948;28;20056;-66
2021/01/06 04:25:18;;;;;;;94.85;34.28;;;;;;;-0.16;78.71;94527.25;5032959;28;20042;-68
2021/01/06 04:27:44;;;;;;;92.93;33.63;;;;;;;-0.55;78.90;94490.91;5032423;28;20041;-67
2021/01/06 04:30:21;;;;;;;92.65;32.72;;;;;;;-0.45;79.16;94520.78;5034609;28;20609;-67
2021/01/06 04:32:46;;;;;;;99.70;34.50;;;;;;;-0.05;78.25;94523.66;5015145;28;20045;-68
2021/01/06 04:35:13;;;;;;;90.90;32.42;;;;;;;-0.34;78.63;94522.41;5032904;28;20052;-67
2021/01/06 04:37:38;;;;;;;98.30;34.40;;;;;;;-0.04;78.40;94517.41;5032829;28;20037;-68
2021/01/06 04:40:04;;;;;;;94.03;33.38;;;;;;;-0.14;77.58;94509.50;5032657;28;20072;-67
2021/01/06 04:42:31;;;;;;;85.57;31.83;;;;;;;-0.37;77.75;94505.41;5032424;28;20467;-67
2021/01/06 04:45:05;;;;;;;91.93;33.15;;;;;;;-0.03;77.45;94524.19;5034710;28;20033;-67
2021/01/06 04:47:42;;;;;;;94.28;32.15;;;;;;;-0.11;78.08;94519.44;5032627;28;20544;-68
2021/01/06 04:50:44;;;;;;;94.60;33.67;;;;;;;0.04;78.26;94517.94;5032396;28;20523;-67
2021/01/06 04:53:17;;;;;;;72.15;28.77;;;;;;;-0.08;77.52;94511.09;5032374;28;20068;-67
2021/01/06 04:56:20;;;;;;;95.78;32.08;;;;;;;0.07;77.14;94518.25;5014712;28;20394;-67
2021/01/06 04:58:45;;;;;;;;;;;;;;;0.42;76.94;94514.25;5031956;28;20049;-67
2021/01/06 05:01:29;;;;;;;93.60;33.45;;;;;;;0.59;76.54;94514.81;5032455;28;20670;-68
2021/01/06 05:04:21;;;;;;;88.13;33.42;;;;;;;0.59;75.98;94508.81;5032256;28;20549;-66
2021/01/06 05:06:53;;;;;;;;;;;;;;;0.60;75.33;94512.97;5032564;28;20046;-66
2021/01/06 05:09:24;;;;;;;94.88;33.30;;;;;;;0.72;75.21;94490.00;5032079;28;19921;-66
2021/01/06 05:11:57;;;;;;;97.47;34.25;;;;;;;0.61;74.59;94506.69;5034032;28;20036;-67
2021/01/06 05:14:30;;;;;;;95.47;35.60;;;;;;;0.49;74.38;94510.31;5032058;28;20485;-66
2021/01/06 05:16:56;;;;;;;97.80;33.88;;;;;;;0.71;75.17;94514.59;5032080;28;20041;-68
2021/01/06 05:19:28;;;;;;;97.97;34.22;;;;;;;0.21;75.32;94497.66;5031882;28;20034;-67
2021/01/06 05:21:54;;;;;;;91.65;34.88;;;;;;;0.19;75.71;94503.13;5031759;28;20519;-68
2021/01/06 05:24:52;;;;;;;88.78;32.97;;;;;;;-0.10;77.22;94515.81;5014277;28;20021;-67
2021/01/06 05:27:39;;;;;;;88.68;33.30;;;;;;;-0.09;77.55;94506.13;4980645;28;20179;-68
2021/01/06 05:30:30;;;;;;;95.10;33.65;;;;;;;-0.21;78.01;94508.13;5033463;28;20025;-67
2021/01/06 05:33:03;;;;;;;84.97;31.38;;;;;;;-0.37;79.32;94517.69;5031957;28;20484;-66
2021/01/06 05:35:36;;;;;;;97.35;33.25;;;;;;;0.01;79.26;94523.72;5031570;28;20046;-67
2021/01/06 05:38:03;;;;;;;101.15;33.38;;;;;;;0.26;78.03;94510.75;5031517;28;20060;-67
2021/01/06 05:40:30;;;;;;;103.88;35.72;;;;;;;0.63;77.81;94520.34;5013663;28;20046;-66
2021/01/06 05:43:23;;;;;;;99.35;35.90;;;;;;;0.29;76.71;94502.41;5030082;28;20057;-68
2021/01/06 05:45:54;;;;;;;95.05;33.45;;;;;;;0.28;77.42;94510.50;5020748;28;20043;-67
2021/01/06 05:48:29;;;;;;;98.43;36.25;;;;;;;0.45;76.68;94527.56;5031308;28;20029;-67
2021/01/06 05:51:06;;;;;;;104.53;34.97;;;;;;;0.47;76.87;94528.13;5033417;28;20475;-66
2021/01/06 05:53:46;;;;;;;99.80;34.90;;;;;;;0.46;77.00;94531.78;5031301;28;20056;-67
2021/01/06 05:56:20;;;;;;;101.18;32.95;;;;;;;0.06;77.67;94532.38;5031392;28;20052;-67
2021/01/06 05:58:53;;;;;;;104.45;37.22;;;;;;;0.37;78.04;94525.47;5030520;28;20045;-67
2021/01/06 06:01:57;;;;;;;105.60;36.47;;;;;;;0.39;77.35;94525.97;5029723;28;20042;-67
2021/01/06 06:04:30;;;;;;;98.45;34.50;;;;;;;0.29;77.95;94525.94;5031251;28;20037;-67
2021/01/06 06:07:15;;;;;;;89.40;32.35;;;;;;;0.02;78.36;94531.28;5031135;28;20052;-67
2021/01/06 06:09:43;;;;;;;94.13;32.88;;;;;;;0.02;78.08;94533.91;5030862;28;20045;-67
2021/01/06 06:12:35;;;;;;;95.97;32.58;;;;;;;0.16;78.02;94532.41;5032821;28;20026;-67
2021/01/06 06:15:13;;;;;;;91.00;33.05;;;;;;;0.13;78.43;94532.91;5031457;28;20060;-67
2021/01/06 06:17:44;;;;;;;102.85;34.25;;;;;;;0.22;77.54;94533.22;5031488;28;20045;-67
2021/01/06 06:20:18;;;;;;;92.70;32.60;;;;;;;0.38;77.23;94527.03;5030718;28;20045;-67
2021/01/06 06:23:12;;;;;;;99.47;34.28;;;;;;;0.40;77.47;94530.16;5030632;28;20072;-67
2021/01/06 06:25:44;;;;;;;104.43;35.75;;;;;;;0.56;77.30;94523.16;5013167;28;20037;-66
2021/01/06 06:28:16;;;;;;;;;;;;;;;0.13;77.21;94532.91;5030853;28;20041;-67
2021/01/06 06:30:53;;;;;;;99.05;31.80;;;;;;;-0.39;79.10;94541.47;5030785;28;19921;-66
2021/01/06 06:33:27;;;;;;;96.20;31.10;;;;;;;-0.52;79.18;94534.81;5030395;28;20103;-66
2021/01/06 06:35:55;;;;;;;90.70;31.20;;;;;;;-0.40;79.73;94545.13;5032485;28;20071;-66
2021/01/06 06:38:37;;;;;;;86.32;30.75;;;;;;;-0.46;79.69;94525.22;5030348;28;20050;-66
2021/01/06 06:41:06;;;;;;;96.35;33.80;;;;;;;-0.14;79.28;94533.03;5030600;28;20056;-68
2021/01/06 06:43:32;;;;;;;95.15;32.65;;;;;;;-0.07;79.35;94545.88;5030299;28;20033;-66
2021/01/06 06:46:10;;;;;;;93.53;33.90;;;;;;;-0.26;79.38;94524.56;5012557;28;20103;-66
2021/01/06 06:48:40;;;;;;;96.45;31.73;;;;;;;-0.34;79.68;94548.56;5030330;28;20049;-68
2021/01/06 06:51:19;;;;;;;103.85;34.00;;;;;;;-0.03;79.39;94550.34;5032202;28;20029;-67
2021/01/06 06:54:09;;;;;;;99.93;33.75;;;;;;;0.10;79.41;94548.31;5030744;28;20479;-67
2021/01/06 06:56:57;;;;;;;96.22;33.17;;;;;;;0.18;77.94;94542.63;5028996;28;20069;-66
2021/01/06 06:59:36;;;;;;;91.75;31.58;;;;;;;0.15;77.51;94540.50;5029472;28;20505;-66
2021/01/06 07:02:04;;;;;;;91.32;31.70;;;;;;;0.32;77.63;94553.44;5012352;28;20045;-66
2021/01/06 07:04:50;;;;;;;101.95;34.03;;;;;;;0.48;78.23;94557.69;5030076;28;20038;-66
2021/01/06 07:07:40;;;;;;;98.38;33.47;;;;;;;0.77;78.57;94556.25;5012303;28;20083;-67
2021/01/06 07:10:26;;;;;;;104.05;31.85;;;;;;;0.45;76.60;94558.97;5011944;28;20422;-67
2021/01/06 07:12:55;;;;;;;92.57;32.75;;;;;;;0.22;76.60;94559.38;5029719;28;20044;-67
2021/01/06 07:15:28;;;;;;;95.95;32.65;;;;;;;0.05;78.10;94562.16;5029771;28;20029;-66
2021/01/06 07:17:53;;;;;;;99.15;33.97;;;;;;;0.15;77.38;94551.75;5031711;28;20049;-66
2021/01/06 07:20:31;;;;;;;92.35;33.25;;;;;;;-0.06;77.51;94503.00;5029586;28;20053;-67
2021/01/06 07:23:02;;;;;;;89.72;30.80;;;;;;;0.02;77.12;94546.19;5011938;28;20056;-66
2021/01/06 07:25:36;;;;;;;89.10;31.77;;;;;;;-0.03;77.83;94568.66;5029446;28;20082;-67
2021/01/06 07:28:05;;;;;;;94.03;32.63;;;;;;;0.48;77.91;94571.56;5029116;28;20056;-67
2021/01/06 07:30:43;;;;;;;90.65;33.05;;;;;;;0.35;77.17;94579.84;5029381;28;20112;-67
2021/01/06 07:33:35;;;;;;;99.28;33.50;;;;;;;0.66;76.95;94564.31;5031453;28;20387;-67
2021/01/06 07:36:23;;;;;;;99.05;32.50;;;;;;;0.57;75.18;94573.72;5030043;28;20053;-66
2021/01/06 07:38:49;;;;;;;94.85;33.30;;;;;;;0.37;75.60;94520.22;5029867;28;20037;-67
2021/01/06 07:41:15;;;;;;;88.60;30.55;;;;;;;0.31;75.14;94564.91;5011879;28;20048;-67
2021/01/06 07:44:03;;;;;;;95.70;31.30;;;;;;;0.61;75.96;94579.97;5029965;28;20403;-67
2021/01/06 07:46:45;;;;;;;81.95;30.75;;;;;;;0.86;75.74;94579.31;5029530;28;20049;-66
2021/01/06 07:49:35;;;;;;;95.10;32.60;;;;;;;0.84;75.90;94579.56;5029552;28;20049;-67
2021/01/06 07:52:13;;;;;;;89.93;31.70;;;;;;;0.84;75.72;94584.81;5015704;28;20037;-68
2021/01/06 07:54:47;;;;;;;93.15;33.15;;;;;;;0.88;74.97;94582.47;5015859;28;20499;-67
2021/01/06 07:57:31;;;;;;;89.25;31.08;;;;;;;0.86;75.16;94590.56;5015316;28;20026;-66
2021/01/06 08:00:00;;;;;;;86.68;30.60;;;;;;;0.66;75.05;94587.84;5017028;28;20021;-66
2021/01/06 08:02:41;;;;;;;84.10;30.90;;;;;;;0.72;74.52;94597.34;5015388;28;20080;-65
2021/01/06 08:05:21;;;;;;;93.13;29.70;;;;;;;0.47;75.57;94600.59;5033550;28;20030;-67
2021/01/06 08:07:46;;;;;;;81.63;29.20;;;;;;;0.52;75.35;94577.09;5033448;28;20047;-67
2021/01/06 08:10:28;;;;;;;93.10;31.15;;;;;;;0.84;75.51;94587.41;5032914;28;20132;-67
2021/01/06 08:13:13;;;;;;;76.38;28.90;;;;;;;0.17;75.58;94582.91;5033186;28;20057;-66
2021/01/06 08:15:39;;;;;;;78.18;28.73;;;;;;;0.18;76.52;94589.69;5033084;28;20033;-66
2021/01/06 08:18:22;;;;;;;78.55;28.80;;;;;;;0.13;77.13;94600.13;5017109;28;20033;-67
2021/01/06 08:20:50;;;;;;;81.55;29.23;;;;;;;0.03;77.20;94611.28;5033778;28;20072;-65
2021/01/06 08:23:27;;;;;;;76.07;29.20;;;;;;;0.41;76.89;94602.41;5032820;28;20394;-66
2021/01/06 08:26:05;;;;;;;81.72;28.92;;;;;;;0.70;75.89;94615.88;5033020;28;20045;-66
2021/01/06 08:28:31;;;;;;;83.10;28.48;;;;;;;1.04;75.69;94603.22;5014456;28;20037;-64
2021/01/06 08:31:09;;;;;;;72.47;29.08;;;;;;;1.04;73.93;94600.59;5032948;28;20046;-68
2021/01/06 08:33:49;;;;;;;71.75;27.52;;;;;;;1.02;74.36;94600.06;5016200;28;20509;-68
2021/01/06 08:36:22;;;;;;;67.22;26.85;;;;;;;0.82;74.08;94607.84;5015948;28;20033;-66
2021/01/06 08:38:47;;;;;;;65.88;25.98;;;;;;;0.29;75.83;94582.69;5035445;28;20029;-66
2021/01/06 08:41:19;;;;;;;71.35;27.90;;;;;;;0.70;76.50;94612.47;5032573;28;20043;-67
2021/01/06 08:43:46;;;;;;;73.18;27.35;;;;;;;0.92;75.15;94609.69;5032820;28;20144;-68
2021/01/06 08:46:24;;;;;;;60.55;26.58;;;;;;;0.90;75.19;94615.19;5032576;28;20034;-65
2021/01/06 08:48:51;;;;;;;65.28;25.65;;;;;;;0.66;74.62;94600.94;5014463;28;20129;-66
2021/01/06 08:51:30;;;;;;;69.40;26.65;;;;;;;1.26;73.97;94612.69;5032066;28;20048;-68
2021/01/06 08:53:56;;;;;;;64.55;24.67;;;;;;;0.60;75.20;94615.06;5034479;28;20021;-67
2021/01/06 08:56:27;;;;;;;62.85;26.48;;;;;;;0.81;74.89;94621.16;5014743;28;20555;-67
2021/01/06 08:58:55;;;;;;;58.38;25.63;;;;;;;1.13;74.20;94600.88;5031609;28;20116;-68
2021/01/06 09:01:41;;;;;;;60.70;26.17;;;;;;;0.92;74.56;94613.13;5031142;28;20048;-67
2021/01/06 09:04:17;;;;;;;65.80;27.77;;;;;;;1.29;73.57;94612.19;5032469;28;20502;-66
2021/01/06 09:06:54;;;;;;;58.72;25.70;;;;;;;1.54;73.57;94614.09;5032077;28;20113;-64
2021/01/06 09:09:37;;;;;;;57.97;23.85;;;;;;;1.27;73.68;94619.50;5032160;28;20112;-68
2021/01/06 09:12:21;;;;;;;57.05;24.77;;;;;;;1.55;72.86;94615.66;5017550;28;20041;-67
2021/01/06 09:14:46;;;;;;;52.70;23.08;;;;;;;1.53;72.15;94625.59;5014799;28;20041;-68
2021/01/06 09:17:48;;;;;;;49.95;22.65;;;;;;;1.04;73.22;94624.16;5031889;28;20111;-67
2021/01/06 09:20:25;;;;;;;45.47;20.10;;;;;;;0.86;74.02;94629.84;5031723;28;20487;-66
2021/01/06 09:22:51;;;;;;;48.50;22.98;;;;;;;1.34;72.93;94633.16;5031752;28;20042;-68
2021/01/06 09:25:23;;;;;;;54.63;22.85;;;;;;;1.47;73.69;94639.75;5032009;28;20046;-68
2021/01/06 09:27:49;;;;;;;50.53;21.42;;;;;;;1.01;73.02;94635.13;5015287;28;20048;-68
2021/01/06 09:30:24;;;;;;;46.42;21.40;;;;;;;1.24;73.88;94633.13;5031631;28;20052;-65
2021/01/06 09:32:51;;;;;;;52.60;23.83;;;;;;;1.60;73.15;94628.78;5033482;28;20053;-66
2021/01/06 09:35:20;;;;;;;50.10;23.27;;;;;;;1.26;73.39;94633.66;5031507;28;20041;-65
2021/01/06 09:37:58;;;;;;;49.47;22.20;;;;;;;1.14;74.38;94651.44;5031509;28;20186;-66
2021/01/06 09:40:25;;;;;;;47.15;21.05;;;;;;;1.32;74.45;94653.59;5031272;28;20438;-67
2021/01/06 09:42:59;;;;;;;41.63;21.45;;;;;;;1.62;72.84;94642.41;5031378;28;20488;-68
2021/01/06 09:45:27;;;;;;;48.55;21.40;;;;;;;1.69;72.42;94650.81;5031471;28;20029;-69
2021/01/06 09:47:56;;;;;;;46.53;21.60;;;;;;;1.53;72.97;94646.56;5033654;28;20579;-67
2021/01/06 09:50:31;;;;;;;45.80;21.23;;;;;;;1.54;72.99;94656.81;5030841;28;20136;-70
2021/01/06 09:53:00;;;;;;;47.92;23.35;;;;;;;1.66;73.27;94627.72;5013290;28;20129;-67
2021/01/06 09:55:27;;;;;;;43.95;20.95;;;;;;;1.25;73.59;94653.84;5031550;28;20475;-69
2021/01/06 09:58:04;;;;;;;45.83;21.23;;;;;;;1.63;72.75;94656.28;5030463;28;20438;-66
2021/01/06 10:00:36;;;;;;;43.88;19.30;;;;;;;0.80;74.24;94664.88;5030958;28;20087;-65
2021/01/06 10:03:03;;;;;;;46.50;22.13;;;;;;;1.16;74.64;94654.59;5033082;28;20466;-64
2021/01/06 10:05:52;;;;;;;48.08;20.92;;;;;;;1.19;74.30;94657.47;5030966;28;20038;-64
2021/01/06 10:08:40;;;;;;;43.92;21.55;;;;;;;1.45;74.33;94645.25;5030803;28;20038;-67
2021/01/06 10:11:31;;;;;;;48.03;21.60;;;;;;;1.08;75.63;94647.22;5031015;28;20177;-65
2021/01/06 10:14:24;;;;;;;47.97;21.92;;;;;;;1.00;73.91;94630.94;5029919;28;20450;-64
2021/01/06 10:16:55;;;;;;;43.78;20.20;;;;;;;1.05;75.81;94648.53;5013074;28;20136;-66
2021/01/06 10:19:43;;;;;;;45.10;20.43;;;;;;;0.82;75.88;94654.16;5030790;28;20069;-66
2021/01/06 10:22:44;;;;;;;46.00;20.60;;;;;;;0.76;76.23;94645.50;5030670;28;20041;-64
2021/01/06 10:25:28;;;;;;;55.53;23.23;;;;;;;0.51;77.08;94648.75;5030527;28;20049;-64
2021/01/06 10:27:59;;;;;;;42.80;20.67;;;;;;;0.71;77.07;94646.25;5029939;28;20045;-66
2021/01/06 10:30:27;;;;;;;46.90;21.42;;;;;;;0.85;76.74;94646.59;5012666;28;20038;-65
2021/01/06 10:33:04;;;;;;;45.05;20.77;;;;;;;0.94;75.77;94652.94;5032450;28;20032;-65
2021/01/06 10:35:30;;;;;;;44.20;19.58;;;;;;;0.65;77.64;94647.28;5030466;28;20539;-64
2021/01/06 10:37:56;;;;;;;53.40;21.80;;;;;;;0.78;76.64;94632.97;5030410;28;20156;-68
2021/01/06 10:40:36;;;;;;;57.40;22.67;;;;;;;0.32;77.50;94640.53;5029996;28;20136;-71
2021/01/06 10:43:32;;;;;;;56.15;23.88;;;;;;;1.04;76.35;94639.09;5030270;28;20112;-69
2021/01/06 10:45:58;;;;;;;39.58;16.38;;;;;;;0.28;77.38;94630.81;5030155;28;20033;-68
2021/01/06 10:48:39;;;;;;;55.42;22.25;;;;;;;0.76;76.77;94640.25;5012296;28;20021;-68
2021/01/06 10:51:05;;;;;;;57.33;22.77;;;;;;;0.46;77.92;94631.22;5032105;28;20410;-67
2021/01/06 10:53:30;;;;;;;49.33;22.40;;;;;;;0.39;77.68;94632.47;5030325;28;20047;-72
2021/01/06 10:56:09;;;;;;;43.60;20.67;;;;;;;0.61;77.39;94635.72;5030437;28;20052;-76
2021/01/06 10:58:59;;;;;;;50.47;22.00;;;;;;;0.68;77.41;94635.53;5029493;28;20037;-70
2021/01/06 11:01:24;;;;;;;51.33;21.15;;;;;;;1.00;75.75;94638.03;5029858;28;20133;-66
2021/01/06 11:04:29;;;;;;;47.60;22.27;;;;;;;0.70;77.08;94642.06;5029889;28;20045;-66
2021/01/06 11:07:20;;;;;;;49.90;21.52;;;;;;;1.07;76.90;94651.66;5029658;28;20045;-70
2021/01/06 11:10:23;;;;;;;52.50;21.20;;;;;;;0.88;75.91;94647.94;5029604;28;20130;-68
2021/01/06 11:12:57;;;;;;;59.30;23.40;;;;;;;0.94;76.62;94646.91;5029774;28;20034;-70
2021/01/06 11:15:40;;;;;;;66.53;23.75;;;;;;;1.12;75.50;94638.59;5012349;28;20025;-68
2021/01/06 11:18:33;;;;;;;62.90;23.95;;;;;;;0.70;76.88;94647.28;5014208;28;20052;-69
2021/01/06 11:21:07;;;;;;;68.93;25.13;;;;;;;1.18;76.47;94636.78;5030308;28;20034;-69
2021/01/06 11:23:37;;;;;;;66.30;21.75;;;;;;;0.51;77.40;94643.53;5011506;28;20040;-69
2021/01/06 11:26:31;;;;;;;70.50;25.15;;;;;;;0.76;77.71;94640.25;5029128;28;20048;-69
2021/01/06 11:29:24;;;;;;;66.93;23.02;;;;;;;0.62;79.29;94641.78;5021900;28;20076;-68
2021/01/06 11:31:50;;;;;;;61.92;24.20;;;;;;;0.60;79.19;94639.38;5029396;28;20041;-68
2021/01/06 11:34:32;;;;;;;60.38;23.70;;;;;;;0.34;79.71;94640.28;5029377;28;20053;-68
2021/01/06 11:36:59;;;;;;;52.95;18.05;;;;;;;0.10;79.85;94637.22;5029578;28;20046;-68
2021/01/06 11:39:27;;;;;;;72.78;26.33;;;;;;;0.72;79.31;94631.34;5011367;28;20108;-68
2021/01/06 11:42:01;;;;;;;68.70;25.10;;;;;;;0.58;78.44;94619.75;5031113;28;20052;-69
2021/01/06 11:44:39;;;;;;;62.10;22.50;;;;;;;0.61;78.98;94630.50;5011595;28;20435;-68
2021/01/06 11:47:20;;;;;;;71.55;24.50;;;;;;;0.69;79.19;94631.84;5011560;28;20038;-69
2021/01/06 11:49:54;;;;;;;78.70;24.88;;;;;;;0.79;77.49;94637.16;5029264;28;20587;-68
2021/01/06 11:52:36;;;;;;;66.05;23.75;;;;;;;0.50;78.71;94613.94;5029156;28;20034;-68
2021/01/06 11:55:24;;;;;;;63.22;22.48;;;;;;;0.58;78.80;94627.63;5029100;28;20092;-68